sensor_id;sensor_type;location;lat;lon;timestamp;P1;durP1;ratioP1;P2;durP2;ratioP2
7961;SDS011;4026;43.652;24.906;2024-02-21T00:01:21;10.60;;;4.47;;
7961;SDS011;4026;43.652;24.906;2024-02-21T00:03:49;6.13;;;3.53;;
7961;SDS011;4026;43.652;24.906;2024-02-21T00:06:15;9.60;;;5.17;;
7961;SDS011;4026;43.652;24.906;2024-02-21T00:08:42;7.67;;;4.57;;
7961;SDS011;4026;43.652;24.906;2024-02-21T00:11:09;9.33;;;4.80;;
7961;SDS011;4026;43.652;24.906;2024-02-21T00:13:36;12.47;;;5.37;;
7961;SDS011;4026;43.652;24.906;2024-02-21T00:16:04;7.37;;;4.57;;
7961;SDS011;4026;43.652;24.906;2024-02-21T00:18:31;11.07;;;3.90;;
7961;SDS011;4026;43.652;24.906;2024-02-21T00:20:58;9.53;;;5.07;;
7961;SDS011;4026;43.652;24.906;2024-02-21T00:23:26;13.33;;;5.00;;
7961;SDS011;4026;43.652;24.906;2024-02-21T00:25:53;10.13;;;5.33;;
7961;SDS011;4026;43.652;24.906;2024-02-21T00:28:20;11.70;;;4.53;;
7961;SDS011;4026;43.652;24.906;2024-02-21T00:30:47;11.17;;;5.97;;
7961;SDS011;4026;43.652;24.906;2024-02-21T00:33:16;8.60;;;4.17;;
7961;SDS011;4026;43.652;24.906;2024-02-21T00:35:43;12.50;;;5.37;;
7961;SDS011;4026;43.652;24.906;2024-02-21T00:38:10;6.17;;;3.93;;
7961;SDS011;4026;43.652;24.906;2024-02-21T00:40:37;13.60;;;5.57;;
7961;SDS011;4026;43.652;24.906;2024-02-21T00:43:04;9.40;;;4.10;;
7961;SDS011;4026;43.652;24.906;2024-02-21T00:45:30;10.07;;;4.80;;
7961;SDS011;4026;43.652;24.906;2024-02-21T00:47:58;9.87;;;4.80;;
7961;SDS011;4026;43.652;24.906;2024-02-21T00:50:26;6.97;;;4.30;;
7961;SDS011;4026;43.652;24.906;2024-02-21T00:52:53;5.27;;;3.93;;
7961;SDS011;4026;43.652;24.906;2024-02-21T00:55:19;11.10;;;3.87;;
7961;SDS011;4026;43.652;24.906;2024-02-21T00:57:46;8.20;;;5.63;;
7961;SDS011;4026;43.652;24.906;2024-02-21T01:00:13;8.40;;;4.37;;
7961;SDS011;4026;43.652;24.906;2024-02-21T01:02:40;8.73;;;3.83;;
7961;SDS011;4026;43.652;24.906;2024-02-21T01:05:07;7.63;;;4.00;;
7961;SDS011;4026;43.652;24.906;2024-02-21T01:07:36;7.47;;;4.07;;
7961;SDS011;4026;43.652;24.906;2024-02-21T01:10:03;8.83;;;4.43;;
7961;SDS011;4026;43.652;24.906;2024-02-21T01:12:30;6.73;;;4.43;;
7961;SDS011;4026;43.652;24.906;2024-02-21T01:14:57;7.33;;;4.77;;
7961;SDS011;4026;43.652;24.906;2024-02-21T01:17:23;6.67;;;4.53;;
7961;SDS011;4026;43.652;24.906;2024-02-21T01:19:50;7.03;;;4.77;;
7961;SDS011;4026;43.652;24.906;2024-02-21T01:22:17;9.23;;;4.93;;
7961;SDS011;4026;43.652;24.906;2024-02-21T01:24:45;12.60;;;4.47;;
7961;SDS011;4026;43.652;24.906;2024-02-21T01:27:12;7.00;;;4.03;;
7961;SDS011;4026;43.652;24.906;2024-02-21T01:29:39;6.87;;;3.57;;
7961;SDS011;4026;43.652;24.906;2024-02-21T01:32:06;10.67;;;4.03;;
7961;SDS011;4026;43.652;24.906;2024-02-21T01:34:33;10.40;;;4.70;;
7961;SDS011;4026;43.652;24.906;2024-02-21T01:37:00;6.87;;;4.17;;
7961;SDS011;4026;43.652;24.906;2024-02-21T01:39:29;7.60;;;3.50;;
7961;SDS011;4026;43.652;24.906;2024-02-21T01:41:57;5.90;;;3.60;;
7961;SDS011;4026;43.652;24.906;2024-02-21T01:44:24;6.70;;;4.37;;
7961;SDS011;4026;43.652;24.906;2024-02-21T01:46:51;7.93;;;3.50;;
7961;SDS011;4026;43.652;24.906;2024-02-21T01:49:19;7.03;;;4.47;;
7961;SDS011;4026;43.652;24.906;2024-02-21T01:51:46;8.60;;;4.23;;
7961;SDS011;4026;43.652;24.906;2024-02-21T01:54:14;5.70;;;3.60;;
7961;SDS011;4026;43.652;24.906;2024-02-21T01:56:42;7.47;;;3.63;;
7961;SDS011;4026;43.652;24.906;2024-02-21T01:59:10;5.40;;;3.57;;
7961;SDS011;4026;43.652;24.906;2024-02-21T02:01:39;6.63;;;4.30;;
7961;SDS011;4026;43.652;24.906;2024-02-21T02:04:07;7.53;;;4.00;;
7961;SDS011;4026;43.652;24.906;2024-02-21T02:06:34;4.70;;;3.70;;
7961;SDS011;4026;43.652;24.906;2024-02-21T02:09:01;5.63;;;4.40;;
7961;SDS011;4026;43.652;24.906;2024-02-21T02:11:28;5.83;;;3.37;;
7961;SDS011;4026;43.652;24.906;2024-02-21T02:13:55;3.67;;;2.67;;
7961;SDS011;4026;43.652;24.906;2024-02-21T02:16:23;11.40;;;5.00;;
7961;SDS011;4026;43.652;24.906;2024-02-21T02:18:51;9.67;;;4.27;;
7961;SDS011;4026;43.652;24.906;2024-02-21T02:21:21;20.53;;;4.23;;
7961;SDS011;4026;43.652;24.906;2024-02-21T02:23:54;5.67;;;3.30;;
7961;SDS011;4026;43.652;24.906;2024-02-21T02:26:22;6.57;;;3.67;;
7961;SDS011;4026;43.652;24.906;2024-02-21T02:28:48;8.40;;;4.30;;
7961;SDS011;4026;43.652;24.906;2024-02-21T02:31:15;6.70;;;4.13;;
7961;SDS011;4026;43.652;24.906;2024-02-21T02:33:42;5.50;;;3.63;;
7961;SDS011;4026;43.652;24.906;2024-02-21T02:36:10;5.63;;;3.07;;
7961;SDS011;4026;43.652;24.906;2024-02-21T02:38:36;5.83;;;3.80;;
7961;SDS011;4026;43.652;24.906;2024-02-21T02:41:05;5.73;;;3.73;;
7961;SDS011;4026;43.652;24.906;2024-02-21T02:43:31;8.47;;;5.37;;
7961;SDS011;4026;43.652;24.906;2024-02-21T02:45:58;7.13;;;3.60;;
7961;SDS011;4026;43.652;24.906;2024-02-21T02:48:25;6.60;;;4.20;;
7961;SDS011;4026;43.652;24.906;2024-02-21T02:50:52;8.03;;;4.00;;
7961;SDS011;4026;43.652;24.906;2024-02-21T02:53:19;5.30;;;3.67;;
7961;SDS011;4026;43.652;24.906;2024-02-21T02:55:45;3.93;;;3.50;;
7961;SDS011;4026;43.652;24.906;2024-02-21T02:58:14;7.63;;;3.77;;
7961;SDS011;4026;43.652;24.906;2024-02-21T03:00:40;5.37;;;3.53;;
7961;SDS011;4026;43.652;24.906;2024-02-21T03:03:07;4.87;;;3.10;;
7961;SDS011;4026;43.652;24.906;2024-02-21T03:05:34;14.60;;;3.87;;
7961;SDS011;4026;43.652;24.906;2024-02-21T03:08:01;7.67;;;4.47;;
7961;SDS011;4026;43.652;24.906;2024-02-21T03:10:32;6.33;;;4.40;;
7961;SDS011;4026;43.652;24.906;2024-02-21T03:12:59;5.77;;;3.20;;
7961;SDS011;4026;43.652;24.906;2024-02-21T03:15:27;6.77;;;4.00;;
7961;SDS011;4026;43.652;24.906;2024-02-21T03:17:54;5.77;;;2.87;;
7961;SDS011;4026;43.652;24.906;2024-02-21T03:20:20;5.83;;;3.70;;
7961;SDS011;4026;43.652;24.906;2024-02-21T03:22:47;4.47;;;3.40;;
7961;SDS011;4026;43.652;24.906;2024-02-21T03:25:14;5.27;;;3.47;;
7961;SDS011;4026;43.652;24.906;2024-02-21T03:27:41;6.00;;;3.23;;
7961;SDS011;4026;43.652;24.906;2024-02-21T03:30:08;4.20;;;2.93;;
7961;SDS011;4026;43.652;24.906;2024-02-21T03:32:37;8.97;;;4.63;;
7961;SDS011;4026;43.652;24.906;2024-02-21T03:35:04;7.03;;;3.97;;
7961;SDS011;4026;43.652;24.906;2024-02-21T03:37:31;6.63;;;3.23;;
7961;SDS011;4026;43.652;24.906;2024-02-21T03:39:58;3.63;;;2.90;;
7961;SDS011;4026;43.652;24.906;2024-02-21T03:42:25;5.37;;;2.90;;
7961;SDS011;4026;43.652;24.906;2024-02-21T03:44:54;4.07;;;2.73;;
7961;SDS011;4026;43.652;24.906;2024-02-21T03:47:21;6.10;;;3.50;;
7961;SDS011;4026;43.652;24.906;2024-02-21T03:49:49;5.97;;;3.40;;
7961;SDS011;4026;43.652;24.906;2024-02-21T03:52:16;4.90;;;2.97;;
7961;SDS011;4026;43.652;24.906;2024-02-21T03:54:43;4.90;;;2.87;;
7961;SDS011;4026;43.652;24.906;2024-02-21T03:57:10;4.00;;;2.60;;
7961;SDS011;4026;43.652;24.906;2024-02-21T03:59:36;5.73;;;3.20;;
7961;SDS011;4026;43.652;24.906;2024-02-21T04:02:05;5.67;;;2.43;;
7961;SDS011;4026;43.652;24.906;2024-02-21T04:04:33;5.73;;;3.70;;
7961;SDS011;4026;43.652;24.906;2024-02-21T04:07:04;4.07;;;2.40;;
7961;SDS011;4026;43.652;24.906;2024-02-21T04:09:31;3.07;;;2.77;;
7961;SDS011;4026;43.652;24.906;2024-02-21T04:11:59;4.17;;;2.77;;
7961;SDS011;4026;43.652;24.906;2024-02-21T04:14:26;3.57;;;2.73;;
7961;SDS011;4026;43.652;24.906;2024-02-21T04:16:53;3.63;;;2.87;;
7961;SDS011;4026;43.652;24.906;2024-02-21T04:19:20;4.33;;;2.67;;
7961;SDS011;4026;43.652;24.906;2024-02-21T04:21:47;6.33;;;2.97;;
7961;SDS011;4026;43.652;24.906;2024-02-21T04:24:15;8.20;;;3.80;;
7961;SDS011;4026;43.652;24.906;2024-02-21T04:26:42;4.50;;;2.93;;
7961;SDS011;4026;43.652;24.906;2024-02-21T04:29:09;4.70;;;2.97;;
7961;SDS011;4026;43.652;24.906;2024-02-21T04:31:36;3.43;;;2.50;;
7961;SDS011;4026;43.652;24.906;2024-02-21T04:34:03;6.07;;;2.90;;
7961;SDS011;4026;43.652;24.906;2024-02-21T04:36:29;3.23;;;2.50;;
7961;SDS011;4026;43.652;24.906;2024-02-21T04:38:56;6.50;;;2.67;;
7961;SDS011;4026;43.652;24.906;2024-02-21T04:41:25;4.67;;;2.63;;
7961;SDS011;4026;43.652;24.906;2024-02-21T04:43:51;5.30;;;3.00;;
7961;SDS011;4026;43.652;24.906;2024-02-21T04:46:18;7.17;;;3.77;;
7961;SDS011;4026;43.652;24.906;2024-02-21T04:48:45;5.70;;;3.00;;
7961;SDS011;4026;43.652;24.906;2024-02-21T04:51:12;4.80;;;3.63;;
7961;SDS011;4026;43.652;24.906;2024-02-21T04:53:39;4.80;;;3.43;;
7961;SDS011;4026;43.652;24.906;2024-02-21T04:56:06;4.30;;;2.93;;
7961;SDS011;4026;43.652;24.906;2024-02-21T04:58:37;7.30;;;2.93;;
7961;SDS011;4026;43.652;24.906;2024-02-21T05:01:04;5.63;;;3.20;;
7961;SDS011;4026;43.652;24.906;2024-02-21T05:03:31;7.00;;;3.43;;
7961;SDS011;4026;43.652;24.906;2024-02-21T05:05:58;6.20;;;3.27;;
7961;SDS011;4026;43.652;24.906;2024-02-21T05:08:25;7.70;;;3.77;;
7961;SDS011;4026;43.652;24.906;2024-02-21T05:10:52;5.03;;;3.40;;
7961;SDS011;4026;43.652;24.906;2024-02-21T05:13:19;5.57;;;2.53;;
7961;SDS011;4026;43.652;24.906;2024-02-21T05:15:47;5.43;;;3.17;;
7961;SDS011;4026;43.652;24.906;2024-02-21T05:18:14;7.67;;;3.73;;
7961;SDS011;4026;43.652;24.906;2024-02-21T05:20:41;3.63;;;2.70;;
7961;SDS011;4026;43.652;24.906;2024-02-21T05:23:08;6.03;;;3.93;;
7961;SDS011;4026;43.652;24.906;2024-02-21T05:25:34;4.63;;;2.80;;
7961;SDS011;4026;43.652;24.906;2024-02-21T05:28:01;5.27;;;3.27;;
7961;SDS011;4026;43.652;24.906;2024-02-21T05:30:28;6.30;;;3.80;;
7961;SDS011;4026;43.652;24.906;2024-02-21T05:32:56;5.00;;;3.17;;
7961;SDS011;4026;43.652;24.906;2024-02-21T05:35:27;4.63;;;2.47;;
7961;SDS011;4026;43.652;24.906;2024-02-21T05:37:54;6.17;;;3.07;;
7961;SDS011;4026;43.652;24.906;2024-02-21T05:40:21;7.63;;;3.73;;
7961;SDS011;4026;43.652;24.906;2024-02-21T05:42:48;6.20;;;3.00;;
7961;SDS011;4026;43.652;24.906;2024-02-21T05:45:16;4.03;;;3.00;;
7961;SDS011;4026;43.652;24.906;2024-02-21T05:47:43;4.97;;;3.00;;
7961;SDS011;4026;43.652;24.906;2024-02-21T05:50:11;7.47;;;4.10;;
7961;SDS011;4026;43.652;24.906;2024-02-21T05:52:38;4.97;;;3.43;;
7961;SDS011;4026;43.652;24.906;2024-02-21T05:55:06;3.83;;;2.87;;
7961;SDS011;4026;43.652;24.906;2024-02-21T05:57:33;8.20;;;3.30;;
7961;SDS011;4026;43.652;24.906;2024-02-21T06:00:02;5.33;;;3.47;;
7961;SDS011;4026;43.652;24.906;2024-02-21T06:02:30;7.70;;;3.40;;
7961;SDS011;4026;43.652;24.906;2024-02-21T06:04:57;10.03;;;4.30;;
7961;SDS011;4026;43.652;24.906;2024-02-21T06:07:25;7.47;;;3.53;;
7961;SDS011;4026;43.652;24.906;2024-02-21T06:09:52;4.13;;;3.40;;
7961;SDS011;4026;43.652;24.906;2024-02-21T06:12:19;7.20;;;3.80;;
7961;SDS011;4026;43.652;24.906;2024-02-21T06:14:46;7.00;;;4.03;;
7961;SDS011;4026;43.652;24.906;2024-02-21T06:17:12;5.10;;;3.87;;
7961;SDS011;4026;43.652;24.906;2024-02-21T06:19:39;7.23;;;4.00;;
7961;SDS011;4026;43.652;24.906;2024-02-21T06:22:07;8.43;;;3.83;;
7961;SDS011;4026;43.652;24.906;2024-02-21T06:24:35;10.93;;;3.80;;
7961;SDS011;4026;43.652;24.906;2024-02-21T06:27:02;5.70;;;3.77;;
7961;SDS011;4026;43.652;24.906;2024-02-21T06:29:31;7.47;;;3.33;;
7961;SDS011;4026;43.652;24.906;2024-02-21T06:31:57;6.37;;;3.40;;
7961;SDS011;4026;43.652;24.906;2024-02-21T06:34:24;6.60;;;3.43;;
7961;SDS011;4026;43.652;24.906;2024-02-21T06:36:51;5.77;;;3.43;;
7961;SDS011;4026;43.652;24.906;2024-02-21T06:39:18;7.97;;;3.67;;
7961;SDS011;4026;43.652;24.906;2024-02-21T06:41:46;8.80;;;4.03;;
7961;SDS011;4026;43.652;24.906;2024-02-21T06:44:15;5.80;;;3.83;;
7961;SDS011;4026;43.652;24.906;2024-02-21T06:46:42;5.63;;;3.30;;
7961;SDS011;4026;43.652;24.906;2024-02-21T06:49:09;8.13;;;4.33;;
7961;SDS011;4026;43.652;24.906;2024-02-21T06:51:40;5.83;;;3.10;;
7961;SDS011;4026;43.652;24.906;2024-02-21T06:54:07;7.57;;;3.97;;
7961;SDS011;4026;43.652;24.906;2024-02-21T06:56:34;9.37;;;3.83;;
7961;SDS011;4026;43.652;24.906;2024-02-21T06:59:03;7.80;;;3.60;;
7961;SDS011;4026;43.652;24.906;2024-02-21T07:01:30;7.30;;;3.83;;
7961;SDS011;4026;43.652;24.906;2024-02-21T07:03:57;8.80;;;3.70;;
7961;SDS011;4026;43.652;24.906;2024-02-21T07:06:24;5.77;;;3.73;;
7961;SDS011;4026;43.652;24.906;2024-02-21T07:08:50;7.63;;;3.53;;
7961;SDS011;4026;43.652;24.906;2024-02-21T07:11:17;7.13;;;2.87;;
7961;SDS011;4026;43.652;24.906;2024-02-21T07:13:44;5.77;;;3.40;;
7961;SDS011;4026;43.652;24.906;2024-02-21T07:16:12;5.97;;;3.67;;
7961;SDS011;4026;43.652;24.906;2024-02-21T07:18:39;6.67;;;3.60;;
7961;SDS011;4026;43.652;24.906;2024-02-21T07:21:06;6.20;;;3.23;;
7961;SDS011;4026;43.652;24.906;2024-02-21T07:23:33;8.20;;;3.77;;
7961;SDS011;4026;43.652;24.906;2024-02-21T07:25:59;5.87;;;3.20;;
7961;SDS011;4026;43.652;24.906;2024-02-21T07:28:26;7.30;;;3.43;;
7961;SDS011;4026;43.652;24.906;2024-02-21T07:30:53;6.83;;;3.27;;
7961;SDS011;4026;43.652;24.906;2024-02-21T07:33:21;6.40;;;3.27;;
7961;SDS011;4026;43.652;24.906;2024-02-21T07:35:48;7.20;;;3.80;;
7961;SDS011;4026;43.652;24.906;2024-02-21T07:48:22;5.63;;;3.63;;
7961;SDS011;4026;43.652;24.906;2024-02-21T07:50:51;7.90;;;4.00;;
7961;SDS011;4026;43.652;24.906;2024-02-21T07:53:19;10.30;;;4.10;;
7961;SDS011;4026;43.652;24.906;2024-02-21T07:55:46;6.80;;;3.97;;
7961;SDS011;4026;43.652;24.906;2024-02-21T07:58:13;8.57;;;4.30;;
7961;SDS011;4026;43.652;24.906;2024-02-21T08:00:39;5.83;;;3.70;;
7961;SDS011;4026;43.652;24.906;2024-02-21T08:03:06;8.63;;;4.67;;
7961;SDS011;4026;43.652;24.906;2024-02-21T08:05:35;7.17;;;4.10;;
7961;SDS011;4026;43.652;24.906;2024-02-21T08:08:02;7.10;;;3.80;;
7961;SDS011;4026;43.652;24.906;2024-02-21T08:10:29;9.33;;;4.70;;
7961;SDS011;4026;43.652;24.906;2024-02-21T08:12:56;8.57;;;4.07;;
7961;SDS011;4026;43.652;24.906;2024-02-21T08:15:23;10.97;;;5.43;;
7961;SDS011;4026;43.652;24.906;2024-02-21T08:17:54;7.97;;;4.63;;
7961;SDS011;4026;43.652;24.906;2024-02-21T08:20:24;10.30;;;5.10;;
7961;SDS011;4026;43.652;24.906;2024-02-21T08:22:52;7.20;;;3.97;;
7961;SDS011;4026;43.652;24.906;2024-02-21T08:25:19;7.07;;;4.07;;
7961;SDS011;4026;43.652;24.906;2024-02-21T08:27:46;9.17;;;5.37;;
7961;SDS011;4026;43.652;24.906;2024-02-21T08:30:13;8.43;;;4.37;;
7961;SDS011;4026;43.652;24.906;2024-02-21T08:32:40;9.37;;;4.93;;
7961;SDS011;4026;43.652;24.906;2024-02-21T08:35:07;9.13;;;5.40;;
7961;SDS011;4026;43.652;24.906;2024-02-21T08:37:34;9.50;;;5.40;;
7961;SDS011;4026;43.652;24.906;2024-02-21T08:40:03;9.67;;;5.00;;
7961;SDS011;4026;43.652;24.906;2024-02-21T08:42:33;11.37;;;5.00;;
7961;SDS011;4026;43.652;24.906;2024-02-21T08:45:00;10.50;;;4.70;;
7961;SDS011;4026;43.652;24.906;2024-02-21T08:47:27;11.57;;;5.93;;
7961;SDS011;4026;43.652;24.906;2024-02-21T08:49:54;10.47;;;5.67;;
7961;SDS011;4026;43.652;24.906;2024-02-21T08:52:20;13.83;;;6.07;;
7961;SDS011;4026;43.652;24.906;2024-02-21T08:54:47;12.67;;;5.87;;
7961;SDS011;4026;43.652;24.906;2024-02-21T08:57:17;11.00;;;5.67;;
7961;SDS011;4026;43.652;24.906;2024-02-21T08:59:44;13.43;;;6.20;;
7961;SDS011;4026;43.652;24.906;2024-02-21T09:02:12;12.33;;;6.23;;
7961;SDS011;4026;43.652;24.906;2024-02-21T09:04:41;14.80;;;6.40;;
7961;SDS011;4026;43.652;24.906;2024-02-21T09:07:09;14.57;;;7.53;;
7961;SDS011;4026;43.652;24.906;2024-02-21T09:09:35;13.33;;;6.97;;
7961;SDS011;4026;43.652;24.906;2024-02-21T09:12:04;17.17;;;6.90;;
7961;SDS011;4026;43.652;24.906;2024-02-21T09:14:33;16.90;;;6.77;;
7961;SDS011;4026;43.652;24.906;2024-02-21T09:17:00;12.10;;;6.93;;
7961;SDS011;4026;43.652;24.906;2024-02-21T09:19:27;16.13;;;6.60;;
7961;SDS011;4026;43.652;24.906;2024-02-21T09:21:54;13.30;;;6.60;;
7961;SDS011;4026;43.652;24.906;2024-02-21T09:24:21;16.27;;;7.13;;
7961;SDS011;4026;43.652;24.906;2024-02-21T09:26:48;14.50;;;5.97;;
7961;SDS011;4026;43.652;24.906;2024-02-21T09:29:15;11.00;;;5.53;;
7961;SDS011;4026;43.652;24.906;2024-02-21T09:31:43;12.10;;;5.37;;
7961;SDS011;4026;43.652;24.906;2024-02-21T09:34:10;11.07;;;6.27;;
7961;SDS011;4026;43.652;24.906;2024-02-21T09:36:37;13.87;;;6.90;;
7961;SDS011;4026;43.652;24.906;2024-02-21T09:39:05;14.30;;;7.00;;
7961;SDS011;4026;43.652;24.906;2024-02-21T09:41:32;17.07;;;7.63;;
7961;SDS011;4026;43.652;24.906;2024-02-21T09:44:07;16.27;;;7.43;;
7961;SDS011;4026;43.652;24.906;2024-02-21T09:46:38;12.80;;;6.47;;
7961;SDS011;4026;43.652;24.906;2024-02-21T09:49:18;13.90;;;7.17;;
7961;SDS011;4026;43.652;24.906;2024-02-21T09:51:56;12.43;;;6.10;;
7961;SDS011;4026;43.652;24.906;2024-02-21T09:54:25;16.10;;;7.00;;
7961;SDS011;4026;43.652;24.906;2024-02-21T09:56:54;15.27;;;6.90;;
7961;SDS011;4026;43.652;24.906;2024-02-21T09:59:21;12.67;;;6.40;;
7961;SDS011;4026;43.652;24.906;2024-02-21T10:01:51;12.87;;;6.20;;
7961;SDS011;4026;43.652;24.906;2024-02-21T10:04:19;13.10;;;6.30;;
7961;SDS011;4026;43.652;24.906;2024-02-21T10:06:46;11.73;;;5.67;;
7961;SDS011;4026;43.652;24.906;2024-02-21T10:09:19;12.57;;;5.93;;
7961;SDS011;4026;43.652;24.906;2024-02-21T10:11:48;14.17;;;7.07;;
7961;SDS011;4026;43.652;24.906;2024-02-21T10:14:15;12.87;;;6.13;;
7961;SDS011;4026;43.652;24.906;2024-02-21T10:16:42;12.13;;;6.23;;
7961;SDS011;4026;43.652;24.906;2024-02-21T10:19:17;12.10;;;5.70;;
7961;SDS011;4026;43.652;24.906;2024-02-21T10:21:45;12.03;;;5.90;;
7961;SDS011;4026;43.652;24.906;2024-02-21T10:24:26;12.67;;;6.60;;
7961;SDS011;4026;43.652;24.906;2024-02-21T10:26:58;9.43;;;5.40;;
7961;SDS011;4026;43.652;24.906;2024-02-21T10:29:25;10.23;;;5.83;;
7961;SDS011;4026;43.652;24.906;2024-02-21T10:31:52;10.50;;;5.43;;
7961;SDS011;4026;43.652;24.906;2024-02-21T10:34:32;12.10;;;5.93;;
7961;SDS011;4026;43.652;24.906;2024-02-21T10:37:02;12.40;;;6.43;;
7961;SDS011;4026;43.652;24.906;2024-02-21T10:39:29;12.63;;;6.03;;
7961;SDS011;4026;43.652;24.906;2024-02-21T10:41:56;13.73;;;6.97;;
7961;SDS011;4026;43.652;24.906;2024-02-21T10:44:28;14.00;;;6.77;;
7961;SDS011;4026;43.652;24.906;2024-02-21T10:46:56;13.63;;;7.23;;
7961;SDS011;4026;43.652;24.906;2024-02-21T10:49:23;14.73;;;7.30;;
7961;SDS011;4026;43.652;24.906;2024-02-21T10:51:56;11.17;;;5.77;;
7961;SDS011;4026;43.652;24.906;2024-02-21T10:54:33;13.43;;;5.60;;
7961;SDS011;4026;43.652;24.906;2024-02-21T10:57:11;13.53;;;5.70;;
7961;SDS011;4026;43.652;24.906;2024-02-21T10:59:39;11.63;;;6.47;;
7961;SDS011;4026;43.652;24.906;2024-02-21T11:02:08;12.27;;;6.27;;
7961;SDS011;4026;43.652;24.906;2024-02-21T11:04:35;11.03;;;5.90;;
7961;SDS011;4026;43.652;24.906;2024-02-21T11:07:04;12.97;;;6.50;;
7961;SDS011;4026;43.652;24.906;2024-02-21T11:09:32;13.37;;;6.73;;
7961;SDS011;4026;43.652;24.906;2024-02-21T11:12:01;17.50;;;6.40;;
7961;SDS011;4026;43.652;24.906;2024-02-21T11:14:29;12.80;;;6.03;;
7961;SDS011;4026;43.652;24.906;2024-02-21T11:16:58;13.93;;;6.63;;
7961;SDS011;4026;43.652;24.906;2024-02-21T11:19:26;10.90;;;6.57;;
7961;SDS011;4026;43.652;24.906;2024-02-21T11:21:54;11.47;;;6.20;;
7961;SDS011;4026;43.652;24.906;2024-02-21T11:24:26;16.50;;;8.20;;
7961;SDS011;4026;43.652;24.906;2024-02-21T11:26:55;13.97;;;7.27;;
7961;SDS011;4026;43.652;24.906;2024-02-21T11:29:25;12.53;;;7.17;;
7961;SDS011;4026;43.652;24.906;2024-02-21T11:31:52;11.03;;;5.93;;
7961;SDS011;4026;43.652;24.906;2024-02-21T11:34:19;11.50;;;6.60;;
7961;SDS011;4026;43.652;24.906;2024-02-21T11:36:46;12.37;;;7.03;;
7961;SDS011;4026;43.652;24.906;2024-02-21T11:39:18;14.97;;;7.87;;
7961;SDS011;4026;43.652;24.906;2024-02-21T11:41:48;16.33;;;7.70;;
7961;SDS011;4026;43.652;24.906;2024-02-21T11:44:27;14.17;;;6.67;;
7961;SDS011;4026;43.652;24.906;2024-02-21T11:46:53;13.27;;;6.83;;
7961;SDS011;4026;43.652;24.906;2024-02-21T11:49:20;14.30;;;7.33;;
7961;SDS011;4026;43.652;24.906;2024-02-21T11:51:47;11.87;;;6.73;;
7961;SDS011;4026;43.652;24.906;2024-02-21T11:54:14;11.17;;;6.60;;
7961;SDS011;4026;43.652;24.906;2024-02-21T11:56:42;11.67;;;6.77;;
7961;SDS011;4026;43.652;24.906;2024-02-21T11:59:10;11.27;;;6.23;;
7961;SDS011;4026;43.652;24.906;2024-02-21T12:01:37;11.27;;;6.50;;
7961;SDS011;4026;43.652;24.906;2024-02-21T12:04:04;12.33;;;6.70;;
7961;SDS011;4026;43.652;24.906;2024-02-21T12:06:32;12.70;;;6.33;;
7961;SDS011;4026;43.652;24.906;2024-02-21T12:08:59;13.20;;;7.40;;
7961;SDS011;4026;43.652;24.906;2024-02-21T12:11:26;11.63;;;6.40;;
7961;SDS011;4026;43.652;24.906;2024-02-21T12:13:59;12.20;;;6.07;;
7961;SDS011;4026;43.652;24.906;2024-02-21T12:16:29;11.33;;;6.27;;
7961;SDS011;4026;43.652;24.906;2024-02-21T12:18:56;14.17;;;6.67;;
7961;SDS011;4026;43.652;24.906;2024-02-21T12:21:24;10.47;;;6.10;;
7961;SDS011;4026;43.652;24.906;2024-02-21T12:23:53;11.90;;;6.40;;
7961;SDS011;4026;43.652;24.906;2024-02-21T12:26:20;11.03;;;6.47;;
7961;SDS011;4026;43.652;24.906;2024-02-21T12:28:46;14.57;;;6.27;;
7961;SDS011;4026;43.652;24.906;2024-02-21T12:31:13;11.87;;;6.33;;
7961;SDS011;4026;43.652;24.906;2024-02-21T12:33:42;11.57;;;6.40;;
7961;SDS011;4026;43.652;24.906;2024-02-21T12:36:09;9.63;;;5.03;;
7961;SDS011;4026;43.652;24.906;2024-02-21T12:38:36;9.87;;;5.80;;
7961;SDS011;4026;43.652;24.906;2024-02-21T12:41:03;7.90;;;4.67;;
7961;SDS011;4026;43.652;24.906;2024-02-21T12:43:30;8.60;;;5.17;;
7961;SDS011;4026;43.652;24.906;2024-02-21T12:45:57;10.23;;;6.33;;
7961;SDS011;4026;43.652;24.906;2024-02-21T12:48:24;11.40;;;5.43;;
7961;SDS011;4026;43.652;24.906;2024-02-21T12:50:52;9.90;;;5.40;;
7961;SDS011;4026;43.652;24.906;2024-02-21T12:53:19;10.17;;;5.20;;
7961;SDS011;4026;43.652;24.906;2024-02-21T12:55:48;8.60;;;5.17;;
7961;SDS011;4026;43.652;24.906;2024-02-21T12:58:15;11.80;;;5.60;;
7961;SDS011;4026;43.652;24.906;2024-02-21T13:00:42;10.63;;;6.07;;
7961;SDS011;4026;43.652;24.906;2024-02-21T13:03:09;10.93;;;5.27;;
7961;SDS011;4026;43.652;24.906;2024-02-21T13:05:36;8.73;;;5.40;;
7961;SDS011;4026;43.652;24.906;2024-02-21T13:08:05;9.00;;;5.13;;
7961;SDS011;4026;43.652;24.906;2024-02-21T13:10:32;9.70;;;5.60;;
7961;SDS011;4026;43.652;24.906;2024-02-21T13:13:00;10.53;;;5.27;;
7961;SDS011;4026;43.652;24.906;2024-02-21T13:15:27;11.30;;;5.30;;
7961;SDS011;4026;43.652;24.906;2024-02-21T13:17:54;7.33;;;4.67;;
7961;SDS011;4026;43.652;24.906;2024-02-21T13:20:22;11.00;;;5.57;;
7961;SDS011;4026;43.652;24.906;2024-02-21T13:22:48;11.07;;;5.10;;
7961;SDS011;4026;43.652;24.906;2024-02-21T13:25:17;8.97;;;5.13;;
7961;SDS011;4026;43.652;24.906;2024-02-21T13:27:46;9.33;;;4.90;;
7961;SDS011;4026;43.652;24.906;2024-02-21T13:30:13;9.27;;;5.00;;
7961;SDS011;4026;43.652;24.906;2024-02-21T13:32:41;10.47;;;5.17;;
7961;SDS011;4026;43.652;24.906;2024-02-21T13:35:08;9.47;;;5.17;;
7961;SDS011;4026;43.652;24.906;2024-02-21T13:37:36;11.67;;;5.57;;
7961;SDS011;4026;43.652;24.906;2024-02-21T13:40:04;11.23;;;5.43;;
7961;SDS011;4026;43.652;24.906;2024-02-21T13:42:32;10.77;;;6.00;;
7961;SDS011;4026;43.652;24.906;2024-02-21T13:44:59;9.23;;;5.13;;
7961;SDS011;4026;43.652;24.906;2024-02-21T13:47:26;21.07;;;6.00;;
7961;SDS011;4026;43.652;24.906;2024-02-21T13:49:54;8.90;;;4.93;;
7961;SDS011;4026;43.652;24.906;2024-02-21T13:52:22;8.83;;;4.80;;
7961;SDS011;4026;43.652;24.906;2024-02-21T13:54:51;8.33;;;4.33;;
7961;SDS011;4026;43.652;24.906;2024-02-21T13:57:18;8.23;;;5.20;;
7961;SDS011;4026;43.652;24.906;2024-02-21T13:59:46;10.03;;;5.10;;
7961;SDS011;4026;43.652;24.906;2024-02-21T14:02:13;9.93;;;5.47;;
7961;SDS011;4026;43.652;24.906;2024-02-21T14:04:40;11.40;;;5.23;;
7961;SDS011;4026;43.652;24.906;2024-02-21T14:07:07;11.00;;;5.27;;
7961;SDS011;4026;43.652;24.906;2024-02-21T14:09:34;10.03;;;4.87;;
7961;SDS011;4026;43.652;24.906;2024-02-21T14:12:01;9.07;;;4.90;;
7961;SDS011;4026;43.652;24.906;2024-02-21T14:14:28;9.30;;;5.27;;
7961;SDS011;4026;43.652;24.906;2024-02-21T14:16:56;7.63;;;4.83;;
7961;SDS011;4026;43.652;24.906;2024-02-21T14:19:23;11.43;;;5.03;;
7961;SDS011;4026;43.652;24.906;2024-02-21T14:21:50;10.40;;;5.07;;
7961;SDS011;4026;43.652;24.906;2024-02-21T14:24:17;11.97;;;5.90;;
7961;SDS011;4026;43.652;24.906;2024-02-21T14:26:43;10.33;;;5.47;;
7961;SDS011;4026;43.652;24.906;2024-02-21T14:29:10;9.27;;;4.87;;
7961;SDS011;4026;43.652;24.906;2024-02-21T14:31:37;11.43;;;5.23;;
7961;SDS011;4026;43.652;24.906;2024-02-21T14:34:06;12.63;;;6.13;;
7961;SDS011;4026;43.652;24.906;2024-02-21T14:36:32;12.23;;;5.80;;
7961;SDS011;4026;43.652;24.906;2024-02-21T14:38:59;10.07;;;5.63;;
7961;SDS011;4026;43.652;24.906;2024-02-21T14:41:26;11.97;;;5.47;;
7961;SDS011;4026;43.652;24.906;2024-02-21T14:43:52;11.97;;;5.43;;
7961;SDS011;4026;43.652;24.906;2024-02-21T14:46:21;11.90;;;5.70;;
7961;SDS011;4026;43.652;24.906;2024-02-21T14:48:47;10.27;;;5.60;;
7961;SDS011;4026;43.652;24.906;2024-02-21T14:51:16;7.50;;;4.30;;
7961;SDS011;4026;43.652;24.906;2024-02-21T14:53:42;8.33;;;4.47;;
7961;SDS011;4026;43.652;24.906;2024-02-21T14:56:12;9.97;;;5.37;;
7961;SDS011;4026;43.652;24.906;2024-02-21T14:58:40;12.93;;;5.07;;
7961;SDS011;4026;43.652;24.906;2024-02-21T15:01:07;9.13;;;4.70;;
7961;SDS011;4026;43.652;24.906;2024-02-21T15:03:34;10.10;;;5.37;;
7961;SDS011;4026;43.652;24.906;2024-02-21T15:06:01;9.90;;;5.40;;
7961;SDS011;4026;43.652;24.906;2024-02-21T15:08:29;12.43;;;5.37;;